Time;durP1;ratioP1;P1;durP2;ratioP2;P2;SDS_P1;SDS_P2;PMS_P1;PMS_P2;Temp;Humidity;BMP_temperature;BMP_pressure;BME280_temperature;BME280_humidity;BME280_pressure;Samples;Min_cycle;Max_cycle;Signal;HPM_P1;HPM_P2
2023/06/10 00:01:22;;;;;;;9.07;6.23;;;;;;;;;;4980634;28;20014;-73
2023/06/10 00:03:47;;;;;;;15.27;6.40;;;;;;;;;;4976206;28;20337;-73
2023/06/10 00:06:12;;;;;;;9.80;6.57;;;;;;;;;;4982136;28;20023;-73
2023/06/10 00:08:39;;;;;;;7.47;6.03;;;;;;;;;;4982491;28;20113;-72
2023/06/10 00:11:05;;;;;;;11.95;5.93;;;;;;;;;;4985849;28;20102;-72
2023/06/10 00:13:30;;;;;;;8.68;5.68;;;;;;;;;;4980604;28;20022;-72
2023/06/10 00:15:55;;;;;;;10.02;6.70;;;;;;;;;;4983073;28;20337;-72
2023/06/10 00:18:21;;;;;;;9.63;5.90;;;;;;;;;;4977947;28;20069;-72
2023/06/10 00:20:48;;;;;;;13.25;6.85;;;;;;;;;;4979481;28;20246;-72
2023/06/10 00:23:14;;;;;;;12.50;6.28;;;;;;;;;;4989772;28;20101;-72
2023/06/10 00:25:39;;;;;;;12.43;6.05;;;;;;;;;;4973880;28;20106;-72
2023/06/10 00:28:05;;;;;;;9.18;6.05;;;;;;;;;;4984477;28;20022;-72
2023/06/10 00:30:30;;;;;;;9.82;6.82;;;;;;;;;;4980684;28;20018;-73
2023/06/10 00:32:55;;;;;;;12.10;7.20;;;;;;;;;;4984035;28;20031;-72
2023/06/10 00:35:21;;;;;;;9.18;6.30;;;;;;;;;;4988830;28;20473;-72
2023/06/10 00:37:46;;;;;;;14.00;6.60;;;;;;;;;;4978992;28;20014;-72
2023/06/10 00:40:11;;;;;;;9.80;6.70;;;;;;;;;;4982000;28;20549;-72
2023/06/10 00:42:37;;;;;;;11.13;6.65;;;;;;;;;;4979041;28;20281;-72
2023/06/10 00:45:02;;;;;;;9.80;5.85;;;;;;;;;;4978160;28;20541;-73
2023/06/10 00:47:28;;;;;;;10.55;6.97;;;;;;;;;;4975950;28;20478;-73
2023/06/10 00:49:54;;;;;;;11.75;6.60;;;;;;;;;;4974248;28;20109;-73
2023/06/10 00:52:22;;;;;;;11.38;5.97;;;;;;;;;;5001723;28;20067;-73
2023/06/10 00:54:47;;;;;;;10.80;6.85;;;;;;;;;;4996314;28;20366;-73
2023/06/10 00:57:13;;;;;;;9.90;6.57;;;;;;;;;;4992303;28;20077;-73
2023/06/10 00:59:39;;;;;;;15.63;6.28;;;;;;;;;;4995902;28;20019;-73
2023/06/10 01:02:04;;;;;;;16.40;6.30;;;;;;;;;;4990630;28;20449;-73
2023/06/10 01:04:30;;;;;;;18.70;6.25;;;;;;;;;;4997943;28;20028;-73
2023/06/10 01:07:05;;;;;;;8.10;6.38;;;;;;;;;;4994369;28;20476;-73
2023/06/10 01:09:36;;;;;;;9.93;6.25;;;;;;;;;;4985021;28;20056;-73
2023/06/10 01:12:13;;;;;;;12.00;6.53;;;;;;;;;;4984639;28;20014;-73
2023/06/10 01:14:45;;;;;;;11.85;7.18;;;;;;;;;;4987226;28;20476;-73
2023/06/10 01:17:10;;;;;;;12.20;6.22;;;;;;;;;;4991950;28;20031;-73
2023/06/10 01:19:36;;;;;;;8.68;6.38;;;;;;;;;;4982682;28;20470;-73
2023/06/10 01:22:01;;;;;;;8.77;6.35;;;;;;;;;;4982538;28;20015;-73
2023/06/10 01:24:27;;;;;;;17.27;6.95;;;;;;;;;;4977580;28;20384;-73
2023/06/10 01:26:53;;;;;;;16.35;7.32;;;;;;;;;;4990589;28;20064;-73
2023/06/10 01:29:26;;;;;;;10.63;6.55;;;;;;;;;;4985843;28;20512;-73
2023/06/10 01:32:10;;;;;;;12.73;6.85;;;;;;;;;;4977191;28;20047;-73
2023/06/10 01:34:37;;;;;;;12.10;6.13;;;;;;;;;;4990660;28;20452;-73
2023/06/10 01:37:03;;;;;;;9.35;6.55;;;;;;;;;;4986213;28;20041;-73
2023/06/10 01:39:29;;;;;;;11.15;7.35;;;;;;;;;;5000060;28;20073;-73
2023/06/10 01:41:55;;;;;;;11.20;6.80;;;;;;;;;;4989680;28;20026;-73
2023/06/10 01:44:23;;;;;;;11.25;8.07;;;;;;;;;;4995678;28;20433;-73
2023/06/10 01:46:48;;;;;;;11.10;7.15;;;;;;;;;;4997219;28;20381;-73
2023/06/10 01:49:14;;;;;;;10.45;7.47;;;;;;;;;;4986203;28;20030;-73
2023/06/10 01:51:39;;;;;;;10.75;7.22;;;;;;;;;;5008746;28;20026;-73
2023/06/10 01:54:05;;;;;;;15.60;8.00;;;;;;;;;;4993815;28;20098;-73
2023/06/10 01:56:30;;;;;;;9.25;6.47;;;;;;;;;;5003123;28;20019;-73
2023/06/10 01:58:58;;;;;;;8.57;6.53;;;;;;;;;;4999764;28;20034;-73
2023/06/10 02:01:24;;;;;;;10.63;6.57;;;;;;;;;;4993253;28;20473;-73
2023/06/10 02:03:49;;;;;;;13.07;7.50;;;;;;;;;;4992882;28;20034;-73
2023/06/10 02:06:14;;;;;;;10.43;6.73;;;;;;;;;;4992561;28;20022;-73
2023/06/10 02:08:40;;;;;;;12.50;7.50;;;;;;;;;;4997800;28;20026;-73
2023/06/10 02:11:06;;;;;;;12.17;6.70;;;;;;;;;;4998687;28;20036;-73
2023/06/10 02:13:32;;;;;;;8.90;6.45;;;;;;;;;;4998112;28;20262;-73
2023/06/10 02:15:57;;;;;;;9.63;6.50;;;;;;;;;;4993290;28;20412;-73
2023/06/10 02:18:22;;;;;;;10.90;6.57;;;;;;;;;;4995596;28;20033;-73
2023/06/10 02:20:48;;;;;;;10.02;6.68;;;;;;;;;;4989394;28;20038;-73
2023/06/10 02:23:14;;;;;;;14.32;6.95;;;;;;;;;;4992726;28;20018;-73
2023/06/10 02:25:39;;;;;;;11.05;6.78;;;;;;;;;;4987422;28;20022;-73
2023/06/10 02:28:05;;;;;;;11.95;6.60;;;;;;;;;;4990030;28;20053;-73
2023/06/10 02:30:30;;;;;;;9.88;6.57;;;;;;;;;;4993236;28;20097;-73
2023/06/10 02:32:56;;;;;;;10.25;6.38;;;;;;;;;;4984452;28;20489;-73
2023/06/10 02:35:22;;;;;;;12.30;6.82;;;;;;;;;;4985848;28;20042;-72
2023/06/10 02:37:47;;;;;;;10.27;6.10;;;;;;;;;;4983314;28;20110;-73
2023/06/10 02:40:12;;;;;;;9.35;6.45;;;;;;;;;;4985938;28;20122;-72
2023/06/10 02:42:38;;;;;;;11.23;6.18;;;;;;;;;;4992505;28;20021;-72
2023/06/10 02:45:03;;;;;;;9.98;6.30;;;;;;;;;;4992421;28;20019;-73
2023/06/10 02:47:28;;;;;;;13.20;6.90;;;;;;;;;;4984991;28;20436;-73
2023/06/10 02:53:15;;;;;;;11.15;7.63;;;;;;;;;;4995910;28;20021;-73
2023/06/10 02:55:40;;;;;;;12.43;6.85;;;;;;;;;;4998287;28;20026;-73
2023/06/10 02:58:06;;;;;;;10.60;6.88;;;;;;;;;;4994572;28;20033;-73
2023/06/10 03:00:32;;;;;;;10.55;6.97;;;;;;;;;;4987500;28;20040;-73
2023/06/10 03:02:58;;;;;;;15.48;7.75;;;;;;;;;;4991284;28;20480;-73
2023/06/10 03:05:23;;;;;;;14.95;7.40;;;;;;;;;;4993242;28;20027;-73
2023/06/10 03:07:48;;;;;;;12.00;8.00;;;;;;;;;;4992021;28;20110;-73
2023/06/10 03:10:13;;;;;;;10.93;7.95;;;;;;;;;;4994429;28;20285;-73
2023/06/10 03:12:38;;;;;;;9.53;6.83;;;;;;;;;;5000721;28;20061;-73
2023/06/10 03:15:04;;;;;;;12.40;7.40;;;;;;;;;;4995196;28;20275;-73
2023/06/10 03:17:29;;;;;;;12.10;7.72;;;;;;;;;;4997287;28;20052;-73
2023/06/10 03:19:54;;;;;;;12.07;7.55;;;;;;;;;;4986672;28;20058;-73
2023/06/10 03:22:20;;;;;;;12.40;7.75;;;;;;;;;;4997885;28;20362;-73
2023/06/10 03:24:46;;;;;;;13.50;7.97;;;;;;;;;;4997949;28;20018;-73
2023/06/10 03:27:11;;;;;;;13.32;8.77;;;;;;;;;;4994834;28;20042;-73
2023/06/10 03:29:37;;;;;;;11.30;7.60;;;;;;;;;;4987731;28;20110;-73
2023/06/10 03:32:02;;;;;;;13.48;6.68;;;;;;;;;;4983908;28;20049;-73
2023/06/10 03:34:27;;;;;;;15.00;8.95;;;;;;;;;;4992180;28;20073;-73
2023/06/10 03:36:52;;;;;;;12.07;7.53;;;;;;;;;;4990869;28;20441;-73
2023/06/10 03:39:17;;;;;;;12.68;7.88;;;;;;;;;;4979496;28;20286;-73
2023/06/10 03:41:43;;;;;;;13.60;7.77;;;;;;;;;;4987800;28;20493;-73
2023/06/10 03:44:08;;;;;;;12.70;8.10;;;;;;;;;;4981582;28;20094;-73
2023/06/10 03:46:33;;;;;;;13.23;8.73;;;;;;;;;;4982753;28;20759;-73
2023/06/10 03:49:00;;;;;;;11.85;8.73;;;;;;;;;;4981814;28;20077;-72
2023/06/10 03:51:25;;;;;;;11.23;7.78;;;;;;;;;;4983282;28;20035;-73
2023/06/10 03:53:50;;;;;;;12.38;7.43;;;;;;;;;;4989297;28;20385;-73
2023/06/10 03:56:16;;;;;;;23.88;9.00;;;;;;;;;;4984870;28;20138;-73
2023/06/10 03:58:41;;;;;;;11.05;7.85;;;;;;;;;;4979789;28;20077;-73
2023/06/10 04:01:07;;;;;;;11.90;8.60;;;;;;;;;;4986007;28;20010;-73
2023/06/10 04:03:33;;;;;;;12.25;8.65;;;;;;;;;;4991711;28;20116;-73
2023/06/10 04:05:58;;;;;;;16.05;8.82;;;;;;;;;;4996331;28;20165;-73
2023/06/10 04:08:23;;;;;;;14.13;9.35;;;;;;;;;;4993272;28;20045;-73
2023/06/10 04:10:48;;;;;;;17.48;8.63;;;;;;;;;;4992891;28;20030;-73
2023/06/10 04:13:14;;;;;;;12.02;8.48;;;;;;;;;;4995331;28;20037;-73
2023/06/10 04:15:40;;;;;;;13.23;8.50;;;;;;;;;;4994866;28;20033;-73
2023/06/10 04:18:06;;;;;;;13.27;8.30;;;;;;;;;;4994084;28;20056;-73
2023/06/10 04:20:31;;;;;;;12.20;8.43;;;;;;;;;;4986501;28;20045;-73
2023/06/10 04:22:56;;;;;;;14.95;8.43;;;;;;;;;;4994381;28;20029;-73
2023/06/10 04:25:22;;;;;;;13.38;8.68;;;;;;;;;;4984248;28;20030;-73
2023/06/10 04:27:47;;;;;;;15.70;9.80;;;;;;;;;;4986451;28;20021;-73
2023/06/10 04:30:13;;;;;;;14.70;9.20;;;;;;;;;;4984244;28;20184;-73
2023/06/10 04:32:38;;;;;;;12.02;9.55;;;;;;;;;;4992455;28;20027;-73
2023/06/10 04:35:03;;;;;;;16.07;9.40;;;;;;;;;;4998713;28;20424;-73
2023/06/10 04:37:29;;;;;;;17.55;8.77;;;;;;;;;;4998496;28;20313;-73
2023/06/10 04:39:54;;;;;;;19.77;10.07;;;;;;;;;;4993363;28;20017;-73
2023/06/10 04:42:19;;;;;;;20.00;9.38;;;;;;;;;;4988795;28;20536;-73
2023/06/10 04:44:44;;;;;;;11.77;8.53;;;;;;;;;;4998050;28;20105;-73
2023/06/10 04:47:09;;;;;;;14.17;8.43;;;;;;;;;;4998807;28;20844;-73
2023/06/10 04:49:35;;;;;;;12.47;8.67;;;;;;;;;;4984004;28;20146;-73
2023/06/10 04:52:00;;;;;;;13.63;9.07;;;;;;;;;;4985834;28;20023;-73
2023/06/10 04:54:26;;;;;;;13.43;8.20;;;;;;;;;;4984224;28;20039;-73
2023/06/10 04:56:51;;;;;;;11.47;8.60;;;;;;;;;;4992917;28;20384;-73
2023/06/10 04:59:16;;;;;;;11.57;8.00;;;;;;;;;;4987960;28;20289;-73
2023/06/10 05:01:41;;;;;;;12.65;8.35;;;;;;;;;;4970545;28;20058;-73
2023/06/10 05:04:06;;;;;;;13.73;8.95;;;;;;;;;;4989244;28;20022;-73
2023/06/10 05:06:31;;;;;;;14.25;8.98;;;;;;;;;;4981923;28;20026;-73
2023/06/10 05:08:56;;;;;;;12.27;9.30;;;;;;;;;;4995364;28;20029;-73
2023/06/10 05:11:22;;;;;;;12.77;8.20;;;;;;;;;;4983333;28;20320;-73
2023/06/10 05:13:47;;;;;;;11.73;8.63;;;;;;;;;;4983696;28;20592;-73
2023/06/10 05:16:12;;;;;;;12.90;8.32;;;;;;;;;;4987561;28;20045;-73
2023/06/10 05:18:37;;;;;;;27.77;9.00;;;;;;;;;;4986218;28;20477;-73
2023/06/10 05:21:02;;;;;;;15.00;8.60;;;;;;;;;;4971274;28;20277;-73
2023/06/10 05:23:28;;;;;;;12.37;8.50;;;;;;;;;;4980475;28;20262;-73
2023/06/10 05:25:53;;;;;;;13.80;9.02;;;;;;;;;;4987449;28;20289;-73
2023/06/10 05:28:18;;;;;;;20.05;9.70;;;;;;;;;;4983007;28;20027;-72
2023/06/10 05:30:43;;;;;;;14.50;9.52;;;;;;;;;;4976609;28;20018;-72
2023/06/10 05:33:08;;;;;;;12.40;8.57;;;;;;;;;;4986812;28;20026;-72
2023/06/10 05:35:33;;;;;;;12.47;7.57;;;;;;;;;;4979820;28;20106;-72
2023/06/10 05:37:59;;;;;;;16.90;8.67;;;;;;;;;;4988497;28;20262;-74
2023/06/10 05:40:24;;;;;;;14.68;9.25;;;;;;;;;;4984449;28;20062;-73
2023/06/10 05:42:49;;;;;;;18.60;9.17;;;;;;;;;;4982577;28;20385;-73
2023/06/10 05:45:14;;;;;;;11.03;7.60;;;;;;;;;;4983904;28;20748;-73
2023/06/10 05:47:40;;;;;;;12.77;7.93;;;;;;;;;;4979480;28;20108;-72
2023/06/10 05:50:07;;;;;;;12.32;8.43;;;;;;;;;;4979425;28;20026;-72
2023/06/10 05:52:33;;;;;;;11.27;7.70;;;;;;;;;;4975871;28;20034;-72
2023/06/10 05:54:59;;;;;;;13.23;7.85;;;;;;;;;;4983568;28;20026;-72
2023/06/10 05:57:24;;;;;;;14.32;8.80;;;;;;;;;;4981681;28;20026;-72
2023/06/10 05:59:49;;;;;;;14.07;8.10;;;;;;;;;;4981965;28;20172;-73
2023/06/10 06:02:15;;;;;;;12.45;8.60;;;;;;;;;;4979761;28;20023;-72
2023/06/10 06:04:40;;;;;;;12.63;7.90;;;;;;;;;;4979421;28;20128;-72
2023/06/10 06:07:05;;;;;;;11.37;7.80;;;;;;;;;;4985258;28;20044;-72
2023/06/10 06:09:30;;;;;;;11.30;6.85;;;;;;;;;;4983362;28;20273;-72
2023/06/10 06:11:55;;;;;;;15.00;6.50;;;;;;;;;;4985424;28;20030;-73
2023/06/10 06:14:21;;;;;;;10.90;7.40;;;;;;;;;;4989706;28;20033;-72
2023/06/10 06:16:46;;;;;;;10.70;6.43;;;;;;;;;;4991357;28;20031;-72
2023/06/10 06:19:11;;;;;;;10.83;6.70;;;;;;;;;;4984258;28;20035;-71
2023/06/10 06:21:36;;;;;;;13.20;7.07;;;;;;;;;;4992358;28;20018;-71
2023/06/10 06:24:01;;;;;;;9.87;6.83;;;;;;;;;;4982434;28;20274;-71
2023/06/10 06:26:26;;;;;;;10.57;7.40;;;;;;;;;;4984258;28;20285;-71
2023/06/10 06:28:52;;;;;;;9.23;6.23;;;;;;;;;;4987635;28;20110;-71
2023/06/10 06:31:17;;;;;;;12.07;7.60;;;;;;;;;;4992062;28;20348;-71
2023/06/10 06:33:42;;;;;;;10.80;6.97;;;;;;;;;;4984443;28;20019;-71
2023/06/10 06:36:07;;;;;;;10.30;6.55;;;;;;;;;;4994008;28;20037;-71
2023/06/10 06:38:32;;;;;;;9.55;6.45;;;;;;;;;;4987683;28;20092;-71
2023/06/10 06:41:02;;;;;;;11.30;7.00;;;;;;;;;;4983949;28;20037;-71
2023/06/10 06:43:27;;;;;;;14.05;6.38;;;;;;;;;;4984402;28;20289;-71
2023/06/10 06:45:53;;;;;;;10.30;6.67;;;;;;;;;;4989516;28;20485;-71
2023/06/10 06:48:18;;;;;;;10.02;6.97;;;;;;;;;;4989668;28;20762;-71
2023/06/10 06:50:43;;;;;;;13.70;6.53;;;;;;;;;;4986327;28;20074;-71
2023/06/10 06:53:08;;;;;;;11.90;6.32;;;;;;;;;;4983725;28;20025;-70
2023/06/10 06:55:33;;;;;;;11.88;7.07;;;;;;;;;;4986384;28;20034;-71
2023/06/10 06:58:02;;;;;;;14.57;6.43;;;;;;;;;;4978402;28;20097;-71
2023/06/10 07:00:27;;;;;;;10.88;7.30;;;;;;;;;;4984815;28;20030;-71
2023/06/10 07:02:52;;;;;;;10.18;6.95;;;;;;;;;;4989120;28;20084;-71
2023/06/10 07:05:18;;;;;;;9.82;6.97;;;;;;;;;;4984587;28;20086;-71
2023/06/10 07:07:43;;;;;;;11.13;6.23;;;;;;;;;;4986007;28;20022;-71
2023/06/10 07:10:08;;;;;;;11.13;6.83;;;;;;;;;;4989117;28;20025;-71
2023/06/10 07:12:33;;;;;;;10.60;5.97;;;;;;;;;;4986613;28;20266;-71
2023/06/10 07:14:58;;;;;;;10.37;6.03;;;;;;;;;;4987228;28;20052;-71
2023/06/10 07:17:23;;;;;;;9.97;6.20;;;;;;;;;;4985609;28;20053;-71
2023/06/10 07:19:49;;;;;;;10.33;5.87;;;;;;;;;;4979287;28;20038;-70
2023/06/10 07:22:14;;;;;;;11.40;6.05;;;;;;;;;;4988556;28;20305;-71
2023/06/10 07:24:40;;;;;;;9.35;5.38;;;;;;;;;;4981255;28;20014;-71
2023/06/10 07:27:05;;;;;;;7.80;5.32;;;;;;;;;;4983087;28;20030;-71
2023/06/10 07:29:30;;;;;;;10.15;5.95;;;;;;;;;;4983802;28;20018;-71
2023/06/10 07:31:56;;;;;;;11.95;5.63;;;;;;;;;;4984843;28;20109;-71
2023/06/10 07:34:21;;;;;;;9.05;6.10;;;;;;;;;;4987197;28;20026;-71
2023/06/10 07:36:46;;;;;;;8.97;5.47;;;;;;;;;;4984611;28;20419;-71
2023/06/10 07:39:11;;;;;;;7.33;5.50;;;;;;;;;;4988326;28;20030;-71
2023/06/10 07:41:36;;;;;;;9.93;5.60;;;;;;;;;;4991194;28;20266;-71
2023/06/10 07:44:02;;;;;;;10.75;5.45;;;;;;;;;;4974910;28;20548;-71
2023/06/10 07:46:28;;;;;;;8.23;5.32;;;;;;;;;;4980149;28;20042;-72
2023/06/10 07:48:53;;;;;;;10.68;5.97;;;;;;;;;;4972821;28;20589;-71
2023/06/10 07:51:19;;;;;;;8.57;6.15;;;;;;;;;;4990002;28;20023;-72
2023/06/10 07:53:44;;;;;;;14.05;4.60;;;;;;;;;;4959205;28;20069;-72
2023/06/10 07:56:09;;;;;;;9.07;5.23;;;;;;;;;;4986697;28;20022;-73
2023/06/10 07:58:34;;;;;;;9.60;4.80;;;;;;;;;;4991938;28;20325;-73
2023/06/10 08:00:59;;;;;;;8.20;5.37;;;;;;;;;;4991615;28;20014;-73
2023/06/10 08:03:24;;;;;;;13.30;5.47;;;;;;;;;;4986473;28;20034;-73
2023/06/10 08:05:50;;;;;;;8.57;5.38;;;;;;;;;;4983096;28;20037;-73
2023/06/10 08:08:15;;;;;;;12.50;5.13;;;;;;;;;;4980118;28;20041;-73
2023/06/10 08:10:40;;;;;;;9.07;5.37;;;;;;;;;;4980305;28;20101;-73
2023/06/10 08:13:05;;;;;;;7.57;4.55;;;;;;;;;;4983494;28;20096;-73
2023/06/10 08:15:30;;;;;;;14.20;5.63;;;;;;;;;;4981370;28;20026;-73
2023/06/10 08:17:56;;;;;;;10.00;5.77;;;;;;;;;;4984976;28;20038;-73
2023/06/10 08:20:21;;;;;;;14.02;6.13;;;;;;;;;;4985807;28;20048;-72
2023/06/10 08:22:46;;;;;;;12.07;5.37;;;;;;;;;;4986367;28;20386;-73
2023/06/10 08:25:12;;;;;;;6.53;5.10;;;;;;;;;;4981735;28;20038;-72
2023/06/10 08:27:37;;;;;;;8.33;5.67;;;;;;;;;;4980767;28;20080;-72
2023/06/10 08:30:02;;;;;;;9.03;5.77;;;;;;;;;;4986878;28;20754;-72
2023/06/10 08:32:27;;;;;;;8.05;4.90;;;;;;;;;;4981217;28;20029;-72
2023/06/10 08:34:52;;;;;;;6.97;5.27;;;;;;;;;;4986045;28;20015;-72
2023/06/10 08:37:18;;;;;;;11.83;5.73;;;;;;;;;;4983650;28;20281;-72
2023/06/10 08:39:43;;;;;;;8.43;4.80;;;;;;;;;;4979327;28;20285;-73
2023/06/10 08:42:27;;;;;;;11.73;5.53;;;;;;;;;;4987387;28;20530;-73
2023/06/10 08:44:55;;;;;;;11.18;4.95;;;;;;;;;;4975334;28;20023;-72
2023/06/10 08:47:21;;;;;;;11.13;5.40;;;;;;;;;;4984720;28;20026;-72
2023/06/10 08:49:47;;;;;;;8.50;5.25;;;;;;;;;;4982121;28;20022;-72
2023/06/10 08:52:16;;;;;;;13.13;6.22;;;;;;;;;;4989225;28;20493;-72
2023/06/10 08:54:43;;;;;;;12.05;4.88;;;;;;;;;;4983548;28;20073;-72
2023/06/10 08:57:08;;;;;;;10.02;5.57;;;;;;;;;;4985627;28;20053;-72
2023/06/10 08:59:34;;;;;;;9.07;4.93;;;;;;;;;;4983232;28;20022;-72
2023/06/10 09:01:59;;;;;;;8.93;5.40;;;;;;;;;;4976215;28;20026;-72
2023/06/10 09:04:25;;;;;;;8.45;5.90;;;;;;;;;;4980492;28;20023;-72
2023/06/10 09:06:51;;;;;;;9.32;5.38;;;;;;;;;;4979635;28;20053;-73
2023/06/10 09:09:16;;;;;;;8.13;5.30;;;;;;;;;;4980526;28;20094;-73
2023/06/10 09:11:44;;;;;;;11.65;5.35;;;;;;;;;;4978749;28;20061;-72
2023/06/10 09:14:09;;;;;;;7.82;4.95;;;;;;;;;;4975807;28;20030;-73
2023/06/10 09:16:35;;;;;;;7.77;4.97;;;;;;;;;;4984345;28;20109;-73
2023/06/10 09:19:00;;;;;;;8.30;5.55;;;;;;;;;;4975937;28;20555;-73
2023/06/10 09:21:25;;;;;;;12.23;6.32;;;;;;;;;;4985003;28;20488;-73
2023/06/10 09:23:51;;;;;;;9.20;6.38;;;;;;;;;;4981294;28;20436;-73
2023/06/10 09:26:16;;;;;;;8.98;5.55;;;;;;;;;;4986971;28;20029;-72
2023/06/10 09:28:47;;;;;;;8.82;5.00;;;;;;;;;;4980022;28;20084;-73
2023/06/10 09:31:13;;;;;;;11.73;5.53;;;;;;;;;;4976716;28;20026;-73
2023/06/10 09:33:42;;;;;;;17.27;6.25;;;;;;;;;;4978191;28;20025;-72
2023/06/10 09:36:07;;;;;;;8.65;5.60;;;;;;;;;;4973402;28;20026;-72
2023/06/10 09:38:34;;;;;;;12.85;5.07;;;;;;;;;;4986191;28;20119;-72
2023/06/10 09:41:01;;;;;;;8.05;5.40;;;;;;;;;;4974272;28;20014;-73
2023/06/10 09:43:39;;;;;;;10.38;5.70;;;;;;;;;;4986401;28;20027;-72
2023/06/10 09:46:04;;;;;;;11.70;5.43;;;;;;;;;;4976579;28;20018;-73
2023/06/10 09:48:29;;;;;;;15.30;5.73;;;;;;;;;;4975875;28;20100;-73
2023/06/10 09:50:54;;;;;;;7.73;5.30;;;;;;;;;;4979534;28;20034;-73
2023/06/10 09:53:20;;;;;;;7.38;4.95;;;;;;;;;;4990099;28;20030;-73
2023/06/10 09:55:45;;;;;;;15.23;5.43;;;;;;;;;;4989107;28;20585;-72
2023/06/10 09:58:10;;;;;;;9.87;5.87;;;;;;;;;;4983181;28;20030;-72
2023/06/10 10:00:36;;;;;;;10.00;4.80;;;;;;;;;;4986304;28;20502;-73
2023/06/10 10:03:01;;;;;;;11.65;4.82;;;;;;;;;;4985458;28;20034;-72
2023/06/10 10:05:27;;;;;;;12.50;5.65;;;;;;;;;;4986559;28;20018;-72
2023/06/10 10:07:53;;;;;;;18.25;5.40;;;;;;;;;;4980302;28;20021;-72
2023/06/10 10:10:19;;;;;;;11.90;5.45;;;;;;;;;;4984472;28;20065;-73
2023/06/10 10:12:46;;;;;;;16.63;5.38;;;;;;;;;;4976594;28;20019;-73
2023/06/10 10:15:11;;;;;;;6.90;4.68;;;;;;;;;;4988692;28;20101;-73
2023/06/10 10:17:39;;;;;;;10.32;6.07;;;;;;;;;;4981348;28;20102;-73
2023/06/10 10:20:08;;;;;;;8.07;4.95;;;;;;;;;;4977988;28;20031;-72
2023/06/10 10:22:37;;;;;;;12.13;5.40;;;;;;;;;;4986511;28;20022;-72
2023/06/10 10:25:05;;;;;;;9.50;5.07;;;;;;;;;;4985199;28;20023;-72
2023/06/10 10:27:33;;;;;;;7.70;4.80;;;;;;;;;;4981510;28;20141;-72
2023/06/10 10:29:58;;;;;;;9.40;5.40;;;;;;;;;;4992291;28;20559;-72
2023/06/10 10:32:34;;;;;;;6.30;4.10;;;;;;;;;;4991493;28;20037;-72
2023/06/10 10:35:12;;;;;;;12.95;4.97;;;;;;;;;;4990323;28;20015;-72
2023/06/10 10:37:37;;;;;;;10.02;5.03;;;;;;;;;;4993459;28;20018;-73
2023/06/10 10:40:03;;;;;;;9.82;5.80;;;;;;;;;;4995752;28;20022;-73
2023/06/10 10:42:29;;;;;;;7.38;5.43;;;;;;;;;;4998734;28;20093;-72
2023/06/10 10:44:55;;;;;;;7.18;3.97;;;;;;;;;;4992960;28;20114;-73
2023/06/10 10:47:21;;;;;;;7.70;5.03;;;;;;;;;;5000108;28;20367;-72
2023/06/10 10:49:48;;;;;;;10.25;5.40;;;;;;;;;;4984848;28;20258;-73
2023/06/10 10:52:13;;;;;;;3.95;2.90;;;;;;;;;;4989944;28;20026;-72
2023/06/10 10:54:43;;;;;;;6.72;4.20;;;;;;;;;;5006616;28;20024;-72
2023/06/10 10:57:12;;;;;;;7.63;4.22;;;;;;;;;;4990186;28;20034;-73
2023/06/10 10:59:46;;;;;;;9.48;4.60;;;;;;;;;;4992599;28;20472;-73
2023/06/10 11:02:16;;;;;;;8.02;4.78;;;;;;;;;;4993505;28;20046;-73
2023/06/10 11:04:46;;;;;;;10.23;5.10;;;;;;;;;;5001307;28;20477;-72
2023/06/10 11:07:11;;;;;;;;;;;;;;;;;;4999697;28;20064;-72
2023/06/10 11:09:36;;;;;;;10.52;4.78;;;;;;;;;;4995040;28;19949;-73
2023/06/10 11:12:01;;;;;;;9.35;5.10;;;;;;;;;;4988209;28;20653;-72
2023/06/10 11:14:28;;;;;;;12.07;4.80;;;;;;;;;;4998091;28;20038;-73
2023/06/10 11:16:56;;;;;;;12.50;5.13;;;;;;;;;;4993433;28;20477;-73
2023/06/10 11:19:37;;;;;;;5.72;4.65;;;;;;;;;;4996799;28;20037;-72
2023/06/10 11:22:06;;;;;;;7.43;4.80;;;;;;;;;;4992179;28;20067;-72
2023/06/10 11:24:31;;;;;;;8.15;5.32;;;;;;;;;;4984506;28;20085;-73
2023/06/10 11:27:17;;;;;;;9.48;5.35;;;;;;;;;;4991530;28;20422;-73
2023/06/10 11:29:55;;;;;;;6.57;4.30;;;;;;;;;;4983791;28;20084;-73
2023/06/10 11:32:20;;;;;;;13.48;5.78;;;;;;;;;;4985307;28;20028;-73
2023/06/10 11:34:51;;;;;;;9.88;5.57;;;;;;;;;;4988666;28;20026;-73
2023/06/10 11:37:16;;;;;;;7.20;4.97;;;;;;;;;;4988604;28;20129;-73
2023/06/10 11:39:42;;;;;;;11.57;5.85;;;;;;;;;;4984448;28;20533;-73
2023/06/10 11:42:07;;;;;;;10.50;5.88;;;;;;;;;;4972866;28;20102;-73
2023/06/10 11:44:37;;;;;;;7.13;5.10;;;;;;;;;;4974233;28;20023;-73
2023/06/10 11:47:02;;;;;;;;;;;;;;;;;;4989815;28;20496;-73
2023/06/10 11:49:27;;;;;;;8.52;5.18;;;;;;;;;;4979981;28;20289;-73
2023/06/10 11:51:52;;;;;;;20.63;6.50;;;;;;;;;;4977924;28;20042;-73
2023/06/10 11:54:18;;;;;;;12.67;5.33;;;;;;;;;;4985546;28;20030;-73
2023/06/10 11:56:43;;;;;;;9.18;5.15;;;;;;;;;;4991095;28;20033;-73
2023/06/10 11:59:08;;;;;;;11.37;5.10;;;;;;;;;;4987940;28;20031;-73
2023/06/10 12:01:34;;;;;;;6.90;5.00;;;;;;;;;;4987553;28;20084;-73
2023/06/10 12:04:04;;;;;;;11.20;4.72;;;;;;;;;;4989179;28;20046;-73
2023/06/10 12:06:29;;;;;;;;;;;;;;;;;;4989356;28;20026;-73
2023/06/10 12:08:55;;;;;;;10.37;5.17;;;;;;;;;;4989983;28;20621;-72
2023/06/10 12:11:21;;;;;;;10.20;4.93;;;;;;;;;;4990778;28;20601;-72
2023/06/10 12:13:50;;;;;;;10.13;5.47;;;;;;;;;;4987151;28;20074;-72
2023/06/10 12:16:16;;;;;;;17.95;5.20;;;;;;;;;;4990246;28;20069;-73
2023/06/10 12:18:43;;;;;;;7.50;5.35;;;;;;;;;;4988864;28;20034;-72
2023/06/10 12:21:17;;;;;;;11.65;5.10;;;;;;;;;;4992546;28;20120;-72
2023/06/10 12:24:02;;;;;;;7.60;5.45;;;;;;;;;;4985961;28;20018;-72
2023/06/10 12:26:34;;;;;;;8.93;5.03;;;;;;;;;;4988860;28;20359;-72
2023/06/10 12:28:59;;;;;;;9.52;4.90;;;;;;;;;;4986181;28;20049;-72
2023/06/10 12:31:24;;;;;;;9.70;5.63;;;;;;;;;;4992413;28;20066;-73
2023/06/10 12:33:50;;;;;;;13.30;5.87;;;;;;;;;;4980170;28;20026;-72
2023/06/10 12:36:16;;;;;;;11.18;4.75;;;;;;;;;;4990115;28;20039;-73
2023/06/10 12:38:41;;;;;;;7.55;5.25;;;;;;;;;;4994324;28;20457;-73
2023/06/10 12:41:06;;;;;;;10.55;4.88;;;;;;;;;;4995435;28;20021;-73
2023/06/10 12:43:32;;;;;;;11.43;4.70;;;;;;;;;;4993290;28;20389;-72
2023/06/10 12:46:08;;;;;;;10.23;5.00;;;;;;;;;;4993906;28;20057;-72
2023/06/10 12:48:34;;;;;;;8.80;5.00;;;;;;;;;;4982284;28;20051;-73
2023/06/10 12:50:59;;;;;;;13.03;5.27;;;;;;;;;;4993477;28;20373;-73
2023/06/10 12:53:28;;;;;;;8.30;4.72;;;;;;;;;;4985453;28;20065;-72
2023/06/10 12:55:54;;;;;;;8.60;5.30;;;;;;;;;;4983479;28;20026;-73
2023/06/10 12:58:20;;;;;;;10.98;5.68;;;;;;;;;;4983951;28;20550;-73
2023/06/10 13:00:45;;;;;;;7.70;4.90;;;;;;;;;;4985852;28;20065;-73
2023/06/10 13:03:10;;;;;;;12.50;4.93;;;;;;;;;;4985206;28;20030;-73
2023/06/10 13:05:38;;;;;;;10.30;5.20;;;;;;;;;;4981615;28;20081;-73
2023/06/10 13:08:03;;;;;;;11.18;5.10;;;;;;;;;;4966349;28;20312;-73
2023/06/10 13:10:28;;;;;;;9.68;5.28;;;;;;;;;;4986274;28;20057;-73
2023/06/10 13:12:54;;;;;;;7.90;4.53;;;;;;;;;;4993600;28;20029;-73
2023/06/10 13:15:19;;;;;;;9.45;5.07;;;;;;;;;;4992878;28;20022;-73
2023/06/10 13:17:50;;;;;;;12.15;5.18;;;;;;;;;;4995294;28;20036;-73
2023/06/10 13:20:16;;;;;;;6.57;4.72;;;;;;;;;;4989434;28;20455;-73
2023/06/10 13:22:41;;;;;;;14.93;5.32;;;;;;;;;;4997647;28;20119;-73
2023/06/10 13:25:07;;;;;;;6.00;4.68;;;;;;;;;;4986963;28;20021;-73
2023/06/10 13:27:32;;;;;;;8.00;4.70;;;;;;;;;;4979327;28;20046;-73
2023/06/10 13:29:57;;;;;;;12.88;4.20;;;;;;;;;;4991759;28;20485;-73
2023/06/10 13:32:23;;;;;;;6.80;4.57;;;;;;;;;;4987957;28;20022;-73
2023/06/10 13:34:49;;;;;;;6.03;4.15;;;;;;;;;;4979886;28;20477;-73
2023/06/10 13:37:15;;;;;;;6.65;4.28;;;;;;;;;;4972674;28;20026;-73
2023/06/10 13:39:40;;;;;;;8.77;4.30;;;;;;;;;;4990119;28;20381;-73
2023/06/10 13:42:07;;;;;;;8.60;4.32;;;;;;;;;;4987225;28;20113;-73
2023/06/10 13:44:35;;;;;;;7.47;4.57;;;;;;;;;;4977149;28;20131;-73
2023/06/10 13:47:01;;;;;;;6.80;4.90;;;;;;;;;;4970916;28;20015;-72
2023/06/10 13:49:26;;;;;;;5.87;4.17;;;;;;;;;;4985713;28;20497;-72
2023/06/10 13:51:51;;;;;;;6.07;4.53;;;;;;;;;;4971347;28;20050;-72
2023/06/10 13:54:16;;;;;;;8.33;4.40;;;;;;;;;;4988544;28;20034;-72
2023/06/10 13:56:41;;;;;;;5.60;4.17;;;;;;;;;;4977994;28;20082;-72
2023/06/10 13:59:07;;;;;;;8.13;4.45;;;;;;;;;;4974626;28;20034;-73
2023/06/10 14:01:32;;;;;;;6.63;4.10;;;;;;;;;;4976094;28;20015;-73
2023/06/10 14:03:57;;;;;;;6.75;4.50;;;;;;;;;;4987471;28;20034;-73
2023/06/10 14:06:22;;;;;;;6.17;4.40;;;;;;;;;;4984608;28;20014;-73
2023/06/10 14:08:48;;;;;;;8.40;4.03;;;;;;;;;;4981570;28;20029;-72
2023/06/10 14:11:13;;;;;;;6.10;4.30;;;;;;;;;;4983501;28;20282;-72
2023/06/10 14:13:38;;;;;;;6.63;4.43;;;;;;;;;;4965829;28;20018;-72
2023/06/10 14:16:04;;;;;;;6.20;4.30;;;;;;;;;;4977771;28;20421;-72
2023/06/10 14:18:29;;;;;;;5.80;3.80;;;;;;;;;;4983577;28;20022;-72
2023/06/10 14:20:54;;;;;;;7.75;3.78;;;;;;;;;;4980494;28;20023;-72
2023/06/10 14:23:20;;;;;;;6.37;3.57;;;;;;;;;;4981071;28;20018;-72
2023/06/10 14:25:45;;;;;;;7.40;3.77;;;;;;;;;;4982809;28;20272;-72
2023/06/10 14:28:10;;;;;;;7.17;4.10;;;;;;;;;;4992237;28;20738;-73
2023/06/10 14:30:35;;;;;;;6.23;3.83;;;;;;;;;;4982585;28;20765;-72
2023/06/10 14:33:00;;;;;;;10.82;4.68;;;;;;;;;;4985520;28;20037;-72